Главная страница
METAR-TAF:

METAR-TAF

Аэропорты :

Хантсвилл, Алабама, США

широта: 34-51-41N, долгота: 086-33-26W, высота над уровнем моря: 230 м

Текущие метеонаблюдения

Эта сводка был подготовлена 27 минут назад, в 12:55 UTC
Ветер 7 Узел от юго-восточный
Температура 11°C
Влажность 66%
Давление 1023 hPa
Видимость: 16.1 км
Отдельные облака на высоте 4200 фута
Сплошная облачность на высоте 5000 фута

METAR: KMDQ 081255Z AUTO 14007KT 10SM SCT042 OVC050 11/05 A3022 RMK A02 T01110052

Время: 07:22 (13:22 UTC)


TAF: отсутствует

Метеонаблюдения и прогнозы для более 4000 аэропортов (сводки METAR и TAF).

Имеющиеся станции представлены на карте желтыми и красными точками.

Чтобы увидеть название станции, наведите на нее мышь.

Затем щелкните, чтобы увидеть метеонаблюдения и метеопрогнозы.

Управление картой: чтобы увеличить масштаб, щелкните зеленые кнопки с черным крестиком; чтобы уменьшить масштаб, щелкните зеленую кнопку с тире; для просмотра соседних карт щелкайте зеленые стрелки.


METAR-TAF: